createdAt,value
2019-06-26T00:00:17.644Z,10.10
2019-06-26T00:02:47.291Z,10.10
2019-06-26T00:05:18.054Z,10.10
2019-06-26T00:07:47.726Z,10.20
2019-06-26T00:10:17.514Z,10.20
2019-06-26T00:12:47.150Z,10.10
2019-06-26T00:15:16.890Z,10.10
2019-06-26T00:17:46.468Z,10.10
2019-06-26T00:20:16.566Z,10.10
2019-06-26T00:22:46.153Z,10.10
2019-06-26T00:25:15.749Z,10.10
2019-06-26T00:27:45.301Z,10.10
2019-06-26T00:30:14.918Z,10.10
2019-06-26T00:32:44.435Z,10.10
2019-06-26T00:35:14.022Z,10.10
2019-06-26T00:37:43.702Z,10.00
2019-06-26T00:40:13.964Z,9.90
2019-06-26T00:42:43.499Z,9.80
2019-06-26T00:45:13.194Z,9.80
2019-06-26T00:47:42.775Z,9.70
2019-06-26T00:50:13.968Z,9.70
2019-06-26T00:52:43.545Z,9.80
2019-06-26T00:55:13.249Z,9.80
2019-06-26T00:57:42.860Z,9.90
2019-06-26T01:00:13.137Z,9.90
2019-06-26T01:02:42.690Z,9.90
2019-06-26T01:05:13.780Z,9.90
2019-06-26T01:07:43.371Z,9.90
2019-06-26T01:10:13.488Z,9.90
2019-06-26T01:12:43.054Z,9.90
2019-06-26T01:15:12.887Z,9.90
2019-06-26T01:17:42.556Z,9.90
2019-06-26T01:20:31.420Z,9.90
2019-06-26T01:23:01.112Z,9.90
2019-06-26T01:25:30.699Z,9.90
2019-06-26T01:28:00.250Z,9.90
2019-06-26T01:30:29.911Z,9.90
2019-06-26T01:32:59.426Z,9.90
2019-06-26T01:35:28.955Z,9.90
2019-06-26T01:37:58.490Z,9.80
2019-06-26T01:40:27.951Z,9.80
2019-06-26T01:42:57.524Z,9.80
2019-06-26T01:45:27.654Z,9.70
2019-06-26T01:47:57.238Z,9.70
2019-06-26T01:50:26.921Z,9.70
2019-06-26T01:52:56.506Z,9.70
2019-06-26T01:55:26.150Z,9.70
2019-06-26T01:57:55.708Z,9.70
2019-06-26T02:00:25.390Z,9.80
2019-06-26T02:02:54.991Z,9.80
2019-06-26T02:05:24.500Z,9.80
2019-06-26T02:07:54.173Z,9.80
2019-06-26T02:10:24.174Z,9.80
2019-06-26T02:12:53.759Z,9.80
2019-06-26T02:15:23.279Z,9.80
2019-06-26T02:17:52.860Z,9.80
2019-06-26T02:20:22.311Z,9.80
2019-06-26T02:22:51.811Z,9.80
2019-06-26T02:25:21.460Z,9.80
2019-06-26T02:27:51.144Z,9.80
2019-06-26T02:30:20.770Z,9.80
2019-06-26T02:32:50.370Z,9.80
2019-06-26T02:35:20.041Z,9.70
2019-06-26T02:37:49.551Z,9.70
2019-06-26T02:40:19.750Z,9.70
2019-06-26T02:42:49.190Z,9.70
2019-06-26T02:45:19.431Z,9.60
2019-06-26T02:47:48.972Z,9.60
2019-06-26T02:50:18.573Z,9.60
2019-06-26T02:52:48.103Z,9.60
2019-06-26T02:55:17.535Z,9.60
2019-06-26T02:57:47.118Z,9.60
2019-06-26T03:00:16.822Z,9.70
2019-06-26T03:02:46.469Z,9.70
2019-06-26T03:05:16.044Z,9.60
2019-06-26T03:07:45.641Z,9.60
2019-06-26T03:10:15.339Z,9.70
2019-06-26T03:12:44.937Z,9.70
2019-06-26T03:15:14.838Z,9.70
2019-06-26T03:17:55.013Z,9.70
2019-06-26T03:20:18.674Z,9.60
2019-06-26T03:22:48.276Z,9.60
2019-06-26T03:25:17.956Z,9.60
2019-06-26T03:27:47.386Z,9.60
2019-06-26T03:30:17.077Z,9.60
2019-06-26T03:32:46.610Z,9.60
2019-06-26T03:35:16.383Z,9.60
2019-06-26T03:37:45.911Z,9.60
2019-06-26T03:40:15.514Z,9.60
2019-06-26T03:42:45.040Z,9.60
2019-06-26T03:45:25.291Z,9.60
2019-06-26T03:47:46.247Z,9.60
2019-06-26T03:50:15.871Z,9.60
2019-06-26T03:52:45.572Z,9.60
2019-06-26T03:55:15.463Z,9.60
2019-06-26T03:57:45.075Z,9.60
2019-06-26T04:00:16.525Z,9.60
2019-06-26T04:02:46.041Z,9.60
2019-06-26T04:05:15.626Z,9.60
2019-06-26T04:07:45.161Z,9.60
2019-06-26T04:10:14.754Z,9.70
2019-06-26T04:12:44.220Z,9.60
2019-06-26T04:15:14.072Z,9.60
2019-06-26T04:17:43.606Z,9.70
2019-06-26T04:20:13.546Z,9.70
2019-06-26T04:22:43.085Z,9.70
2019-06-26T04:25:12.883Z,9.70
2019-06-26T04:27:42.488Z,9.70
2019-06-26T04:30:12.656Z,9.80
2019-06-26T04:32:42.213Z,9.80
2019-06-26T04:35:12.213Z,9.80
2019-06-26T04:37:41.713Z,9.80
2019-06-26T04:40:11.580Z,9.90
2019-06-26T04:42:41.108Z,10.00
2019-06-26T04:45:11.123Z,10.00
2019-06-26T04:47:40.716Z,10.00
2019-06-26T04:50:10.930Z,10.10
2019-06-26T04:52:40.521Z,10.10
2019-06-26T04:55:10.870Z,10.70
2019-06-26T04:57:40.472Z,12.00
2019-06-26T05:00:13.110Z,12.90
2019-06-26T05:02:42.728Z,13.60
2019-06-26T05:05:12.441Z,14.10
2019-06-26T05:07:42.016Z,13.20
2019-06-26T05:10:11.945Z,12.50
2019-06-26T05:12:41.579Z,12.00
2019-06-26T05:15:11.671Z,11.60
2019-06-26T05:17:41.279Z,11.30
2019-06-26T05:20:11.440Z,11.10
2019-06-26T05:22:41.057Z,11.00
2019-06-26T05:25:11.239Z,10.90
2019-06-26T05:27:41.243Z,10.90
2019-06-26T05:30:12.128Z,10.90
2019-06-26T05:32:42.001Z,10.90
2019-06-26T05:35:11.863Z,10.80
2019-06-26T05:37:42.056Z,10.80
2019-06-26T05:40:12.837Z,10.90
2019-06-26T05:42:42.503Z,10.90
2019-06-26T05:45:13.852Z,11.00
2019-06-26T05:47:43.464Z,11.00
2019-06-26T05:50:13.980Z,11.10
2019-06-26T05:52:43.615Z,11.10
2019-06-26T05:55:14.378Z,11.10
2019-06-26T05:57:48.349Z,11.10
2019-06-26T06:00:16.919Z,11.10
2019-06-26T06:02:46.535Z,11.10
2019-06-26T06:05:16.335Z,11.00
2019-06-26T06:07:45.973Z,10.90
2019-06-26T06:10:16.273Z,10.80
2019-06-26T06:12:47.026Z,10.80
2019-06-26T06:15:17.060Z,10.70
2019-06-26T06:17:46.659Z,10.70
2019-06-26T06:20:19.191Z,10.70
2019-06-26T06:22:48.809Z,10.80
2019-06-26T06:25:18.400Z,10.80
2019-06-26T06:27:47.898Z,10.80
2019-06-26T06:30:18.100Z,10.80
2019-06-26T06:32:47.783Z,10.80
2019-06-26T06:35:17.354Z,10.80
2019-06-26T06:37:46.965Z,10.90
2019-06-26T06:40:16.948Z,10.80
2019-06-26T06:42:46.576Z,10.80
2019-06-26T06:45:16.582Z,10.80
2019-06-26T06:47:46.244Z,10.90
2019-06-26T06:50:15.866Z,11.00
2019-06-26T06:52:46.648Z,11.00
2019-06-26T06:55:17.206Z,11.10
2019-06-26T06:57:46.885Z,11.10
2019-06-26T07:00:17.032Z,11.10
2019-06-26T07:02:46.619Z,11.20
2019-06-26T07:05:16.458Z,11.20
2019-06-26T07:07:46.086Z,11.20
2019-06-26T07:10:17.212Z,11.30
2019-06-26T07:12:46.917Z,11.30
2019-06-26T07:15:16.567Z,11.20
2019-06-26T07:17:46.171Z,11.10
2019-06-26T07:20:17.213Z,11.20
2019-06-26T07:22:46.824Z,11.30
2019-06-26T07:25:16.585Z,11.60
2019-06-26T07:27:46.128Z,11.80
2019-06-26T07:30:17.130Z,12.00
2019-06-26T07:32:46.647Z,12.00
2019-06-26T07:35:16.242Z,12.10
2019-06-26T07:37:45.720Z,12.00
2019-06-26T07:40:15.443Z,12.20
2019-06-26T07:42:45.022Z,12.20
2019-06-26T07:45:14.629Z,12.30
2019-06-26T07:47:44.443Z,12.40
2019-06-26T07:50:14.483Z,12.40
2019-06-26T07:52:43.954Z,12.60
2019-06-26T07:55:13.636Z,12.60
2019-06-26T07:57:43.084Z,13.00
2019-06-26T08:00:13.086Z,13.30
2019-06-26T08:02:42.691Z,13.50
2019-06-26T08:05:14.054Z,13.90
2019-06-26T08:07:43.664Z,13.90
2019-06-26T08:10:13.716Z,13.80
2019-06-26T08:12:43.374Z,13.30
2019-06-26T08:15:13.831Z,13.50
2019-06-26T08:17:59.062Z,13.50
2019-06-26T08:20:15.691Z,13.50
2019-06-26T08:22:45.208Z,13.20
2019-06-26T08:25:15.073Z,12.80
2019-06-26T08:27:44.639Z,12.70
2019-06-26T08:30:15.216Z,12.80
2019-06-26T08:32:44.770Z,12.80
2019-06-26T08:35:14.644Z,12.70
2019-06-26T08:37:44.278Z,12.60
2019-06-26T08:40:13.952Z,12.70
2019-06-26T08:42:43.542Z,12.60
2019-06-26T08:45:13.364Z,12.80
2019-06-26T08:47:43.037Z,13.00
2019-06-26T08:50:13.342Z,13.20
2019-06-26T08:52:42.952Z,13.40
2019-06-26T08:55:12.877Z,13.60
2019-06-26T08:57:42.526Z,13.80
2019-06-26T09:00:12.587Z,13.70
2019-06-26T09:02:42.110Z,13.70
2019-06-26T09:05:12.304Z,13.90
2019-06-26T09:07:41.773Z,13.90
2019-06-26T09:10:11.451Z,13.90
2019-06-26T09:12:41.187Z,13.90
2019-06-26T09:15:11.019Z,14.00
2019-06-26T09:17:40.558Z,14.50
2019-06-26T09:20:10.483Z,14.50
2019-06-26T09:22:39.953Z,14.40
2019-06-26T09:25:21.540Z,14.50
2019-06-26T09:27:42.330Z,15.20
2019-06-26T09:30:12.532Z,16.40
2019-06-26T09:32:42.088Z,16.80
2019-06-26T09:35:11.848Z,17.20
2019-06-26T09:37:41.443Z,17.50
2019-06-26T09:40:11.434Z,17.20
2019-06-26T09:42:41.153Z,16.40
2019-06-26T09:45:10.709Z,16.30
2019-06-26T09:47:40.229Z,15.90
2019-06-26T09:50:10.609Z,16.00
2019-06-26T09:52:40.199Z,15.80
2019-06-26T09:55:10.202Z,15.90
2019-06-26T09:57:39.923Z,16.20
2019-06-26T10:00:12.030Z,16.90
2019-06-26T10:02:41.832Z,16.90
2019-06-26T10:05:12.735Z,17.40
2019-06-26T10:07:42.329Z,17.80
2019-06-26T10:10:12.048Z,17.30
2019-06-26T10:12:41.640Z,17.60
2019-06-26T10:15:11.915Z,17.20
2019-06-26T10:17:41.580Z,16.30
2019-06-26T10:20:12.420Z,16.90
2019-06-26T10:22:41.922Z,17.30
2019-06-26T10:25:13.381Z,17.70
2019-06-26T10:27:42.998Z,17.40
2019-06-26T10:30:12.966Z,17.50
2019-06-26T10:32:42.531Z,17.70
2019-06-26T10:35:12.236Z,17.10
2019-06-26T10:37:41.906Z,17.10
2019-06-26T10:40:15.821Z,17.30
2019-06-26T10:42:43.022Z,17.70
2019-06-26T10:45:12.885Z,17.80
2019-06-26T10:47:42.497Z,18.10
2019-06-26T10:50:12.435Z,17.90
2019-06-26T10:52:41.982Z,18.10
2019-06-26T10:55:11.908Z,18.60
2019-06-26T10:57:41.616Z,18.50
2019-06-26T11:00:12.344Z,18.20
2019-06-26T11:02:41.979Z,18.00
2019-06-26T11:05:12.052Z,17.70
2019-06-26T11:07:41.582Z,17.20
2019-06-26T11:10:11.408Z,17.10
2019-06-26T11:12:40.916Z,16.80
2019-06-26T11:15:11.224Z,17.30
2019-06-26T11:17:42.171Z,17.60
2019-06-26T11:20:12.313Z,18.10
2019-06-26T11:22:41.898Z,18.20
2019-06-26T11:25:11.520Z,18.50
2019-06-26T11:27:41.081Z,18.40
2019-06-26T11:30:11.818Z,18.30
2019-06-26T11:32:41.439Z,18.10
2019-06-26T11:35:11.400Z,18.00
2019-06-26T11:37:40.963Z,18.10
2019-06-26T11:40:10.805Z,18.10
2019-06-26T11:42:40.318Z,18.40
2019-06-26T11:45:11.912Z,18.20
2019-06-26T11:47:45.380Z,18.30
2019-06-26T11:50:14.627Z,18.10
2019-06-26T11:52:43.374Z,17.90
2019-06-26T11:55:13.449Z,18.00
2019-06-26T11:57:43.001Z,17.70
2019-06-26T12:00:15.595Z,17.60
2019-06-26T12:02:45.219Z,17.50
2019-06-26T12:05:15.209Z,17.40
2019-06-26T12:07:44.817Z,17.70
2019-06-26T12:10:15.114Z,17.80
2019-06-26T12:12:44.682Z,17.50
2019-06-26T12:15:16.160Z,17.20
2019-06-26T12:17:44.925Z,17.40
2019-06-26T12:20:19.356Z,17.60
2019-06-26T12:22:47.367Z,17.40
2019-06-26T12:25:16.990Z,17.40
2019-06-26T12:27:46.586Z,17.40
2019-06-26T12:30:16.230Z,17.50
2019-06-26T12:33:01.563Z,17.40
2019-06-26T12:35:17.676Z,17.50
2019-06-26T12:37:47.204Z,17.70
2019-06-26T12:40:18.231Z,17.80
2019-06-26T12:42:47.726Z,17.70
2019-06-26T12:45:17.291Z,17.70
2019-06-26T12:47:47.021Z,17.60
2019-06-26T12:50:34.162Z,17.70
2019-06-26T12:52:49.633Z,17.70
2019-06-26T12:55:19.229Z,17.50
2019-06-26T12:57:48.748Z,17.50
2019-06-26T13:00:18.529Z,17.40
2019-06-26T13:02:48.058Z,17.50
2019-06-26T13:05:17.726Z,17.40
2019-06-26T13:07:47.276Z,17.40
2019-06-26T13:10:17.487Z,17.50
2019-06-26T13:12:47.048Z,17.40
2019-06-26T13:15:17.945Z,17.40
2019-06-26T13:17:47.518Z,17.60
2019-06-26T13:20:18.647Z,17.70
2019-06-26T13:22:48.172Z,17.80
2019-06-26T13:25:19.154Z,17.70
2019-06-26T13:27:48.823Z,17.60
2019-06-26T13:30:21.418Z,17.80
2019-06-26T13:32:51.096Z,18.10
2019-06-26T13:35:23.432Z,18.30
2019-06-26T13:37:51.786Z,18.20
2019-06-26T13:40:21.344Z,18.30
2019-06-26T13:42:50.822Z,18.30
2019-06-26T13:45:20.341Z,18.40
2019-06-26T13:47:50.081Z,18.50
2019-06-26T13:50:20.871Z,18.50
2019-06-26T13:52:50.481Z,18.30
2019-06-26T13:55:20.108Z,17.50
2019-06-26T13:57:49.718Z,17.50
2019-06-26T14:00:19.546Z,17.30
2019-06-26T14:02:49.130Z,17.20
2019-06-26T14:05:19.921Z,17.20
2019-06-26T14:07:49.362Z,17.40
2019-06-26T14:10:18.978Z,17.30
2019-06-26T14:12:48.561Z,17.00
2019-06-26T14:15:19.130Z,16.70
2019-06-26T14:17:48.687Z,16.60
2019-06-26T14:20:18.780Z,16.60
2019-06-26T14:22:48.391Z,16.20
2019-06-26T14:25:18.175Z,16.00
2019-06-26T14:27:47.708Z,16.10
2019-06-26T14:30:19.018Z,16.00
2019-06-26T14:32:48.611Z,16.00
2019-06-26T14:35:18.300Z,15.90
2019-06-26T14:37:47.828Z,15.90
2019-06-26T14:40:18.518Z,15.80
2019-06-26T14:42:48.108Z,15.60
2019-06-26T14:45:17.755Z,15.50
2019-06-26T14:47:47.321Z,15.40
2019-06-26T14:50:17.421Z,15.50
2019-06-26T14:52:46.976Z,15.60
2019-06-26T14:55:16.901Z,15.60
2019-06-26T14:57:46.468Z,15.60
2019-06-26T15:00:16.066Z,15.50
2019-06-26T15:02:45.581Z,15.40
2019-06-26T15:05:15.155Z,15.20
2019-06-26T15:07:44.825Z,15.10
2019-06-26T15:10:15.037Z,15.10
2019-06-26T15:12:45.657Z,15.20
2019-06-26T15:15:15.658Z,15.40
2019-06-26T15:17:45.295Z,15.10
2019-06-26T15:20:16.514Z,15.00
2019-06-26T15:22:46.154Z,15.00
2019-06-26T15:25:16.965Z,14.90
2019-06-26T15:27:46.475Z,14.90
2019-06-26T15:30:16.828Z,15.00
2019-06-26T15:32:46.885Z,15.10
2019-06-26T15:35:16.648Z,15.10
2019-06-26T15:37:46.258Z,14.90
2019-06-26T15:40:16.066Z,14.80
2019-06-26T15:42:48.845Z,14.80
2019-06-26T15:45:20.557Z,14.70
2019-06-26T15:47:47.588Z,14.80
2019-06-26T15:50:17.111Z,14.70
2019-06-26T15:52:46.627Z,14.70
2019-06-26T15:55:16.491Z,14.70
2019-06-26T15:57:46.134Z,14.70
2019-06-26T16:00:17.327Z,14.70
2019-06-26T16:02:46.868Z,14.70
2019-06-26T16:05:16.623Z,14.60
2019-06-26T16:07:46.174Z,14.60
2019-06-26T16:10:16.670Z,14.70
2019-06-26T16:12:46.602Z,14.60
2019-06-26T16:15:16.613Z,14.50
2019-06-26T16:17:50.482Z,14.50
2019-06-26T16:20:20.473Z,14.40
2019-06-26T16:22:50.023Z,14.40
2019-06-26T16:25:19.520Z,14.40
2019-06-26T16:28:04.331Z,14.40
2019-06-26T16:30:20.757Z,14.50
2019-06-26T16:32:50.346Z,14.40
2019-06-26T16:35:20.168Z,14.40
2019-06-26T16:37:49.604Z,14.30
2019-06-26T16:40:19.113Z,14.30
2019-06-26T16:42:48.728Z,14.10
2019-06-26T16:45:18.770Z,14.20
2019-06-26T16:47:48.300Z,14.10
2019-06-26T16:50:18.002Z,14.10
2019-06-26T16:52:49.717Z,14.10
2019-06-26T16:55:18.890Z,14.00
2019-06-26T16:57:48.536Z,13.90
2019-06-26T17:00:19.317Z,13.90
2019-06-26T17:02:48.902Z,13.90
2019-06-26T17:05:18.518Z,13.90
2019-06-26T17:07:48.124Z,13.90
2019-06-26T17:10:18.229Z,13.80
2019-06-26T17:12:48.842Z,13.80
2019-06-26T17:15:18.511Z,13.70
2019-06-26T17:17:48.110Z,13.60
2019-06-26T17:20:18.328Z,13.70
2019-06-26T17:23:01.117Z,13.60
2019-06-26T17:25:19.255Z,13.60
2019-06-26T17:27:48.744Z,13.50
2019-06-26T17:30:18.477Z,13.50
2019-06-26T17:32:47.991Z,13.50
2019-06-26T17:35:17.603Z,13.60
2019-06-26T17:37:47.206Z,13.60
2019-06-26T17:40:16.914Z,13.50
2019-06-26T17:42:46.502Z,13.40
2019-06-26T17:45:16.300Z,13.40
2019-06-26T17:47:45.885Z,13.40
2019-06-26T17:50:15.791Z,13.50
2019-06-26T17:52:46.377Z,13.50
2019-06-26T17:55:16.132Z,13.50
2019-06-26T17:57:47.588Z,13.40
2019-06-26T18:00:18.485Z,13.50
2019-06-26T18:02:48.184Z,13.50
2019-06-26T18:05:17.773Z,13.50
2019-06-26T18:07:47.359Z,13.50
2019-06-26T18:10:17.071Z,13.50
2019-06-26T18:12:46.936Z,13.50
2019-06-26T18:15:16.900Z,13.60
2019-06-26T18:17:46.787Z,13.50
2019-06-26T18:20:17.892Z,13.60
2019-06-26T18:22:47.673Z,13.60
2019-06-26T18:25:17.506Z,13.60
2019-06-26T18:27:47.495Z,13.70
2019-06-26T18:30:17.341Z,13.60
2019-06-26T18:32:46.823Z,13.60
2019-06-26T18:35:17.349Z,13.70
2019-06-26T18:37:46.918Z,13.70
2019-06-26T18:40:16.642Z,13.70
2019-06-26T18:42:46.307Z,13.80
2019-06-26T18:45:15.913Z,13.80
2019-06-26T18:47:45.485Z,13.70
2019-06-26T18:50:15.224Z,13.70
2019-06-26T18:52:44.785Z,13.70
2019-06-26T18:55:14.396Z,13.70
2019-06-26T18:57:44.028Z,13.70
2019-06-26T19:00:14.382Z,13.60
2019-06-26T19:02:44.129Z,13.70
2019-06-26T19:05:13.876Z,13.60
2019-06-26T19:07:43.517Z,13.70
2019-06-26T19:10:14.605Z,13.70
2019-06-26T19:12:44.218Z,13.60
2019-06-26T19:15:13.819Z,13.70
2019-06-26T19:17:43.476Z,13.70
2019-06-26T19:20:13.365Z,13.70
2019-06-26T19:22:43.008Z,13.70
2019-06-26T19:25:13.537Z,13.70
2019-06-26T19:27:43.121Z,13.80
2019-06-26T19:30:13.316Z,13.80
2019-06-26T19:32:42.932Z,13.80
2019-06-26T19:35:20.391Z,13.80
2019-06-26T19:37:43.842Z,13.80
2019-06-26T19:40:13.438Z,13.80
2019-06-26T19:42:42.958Z,13.80
2019-06-26T19:45:14.652Z,13.80
2019-06-26T19:47:44.306Z,13.80
2019-06-26T19:50:15.691Z,13.80
2019-06-26T19:52:45.295Z,13.80
2019-06-26T19:55:15.150Z,13.80
2019-06-26T19:57:44.839Z,13.80
2019-06-26T20:00:14.693Z,13.80
2019-06-26T20:02:44.355Z,13.80
2019-06-26T20:05:14.571Z,13.80
2019-06-26T20:07:45.549Z,13.80
2019-06-26T20:10:15.371Z,13.80
2019-06-26T20:12:44.945Z,13.80
2019-06-26T20:15:15.054Z,13.80
2019-06-26T20:17:44.764Z,13.80
2019-06-26T20:20:14.420Z,13.80
2019-06-26T20:22:44.149Z,13.80
2019-06-26T20:25:14.013Z,13.80
2019-06-26T20:27:43.581Z,13.70
2019-06-26T20:30:14.999Z,13.70
2019-06-26T20:32:43.899Z,13.60
2019-06-26T20:35:13.416Z,13.60
2019-06-26T20:37:43.110Z,13.60
2019-06-26T20:40:12.742Z,13.60
2019-06-26T20:42:42.517Z,13.60
2019-06-26T20:45:13.893Z,13.60
2019-06-26T20:47:44.146Z,13.50
2019-06-26T20:50:13.896Z,13.50
2019-06-26T20:52:43.499Z,13.40
2019-06-26T20:55:13.276Z,13.40
2019-06-26T20:57:43.077Z,13.30
2019-06-26T21:00:12.918Z,13.30
2019-06-26T21:02:42.785Z,13.20
2019-06-26T21:05:13.018Z,13.20
2019-06-26T21:07:42.529Z,13.20
2019-06-26T21:10:12.232Z,13.10
2019-06-26T21:12:41.825Z,13.10
2019-06-26T21:15:11.901Z,12.90
2019-06-26T21:17:41.672Z,12.90
2019-06-26T21:20:11.667Z,12.80
2019-06-26T21:22:42.144Z,12.90
2019-06-26T21:25:18.956Z,12.90
2019-06-26T21:27:43.117Z,13.00
2019-06-26T21:30:12.949Z,13.00
2019-06-26T21:32:42.463Z,13.20
2019-06-26T21:35:13.135Z,13.30
2019-06-26T21:37:42.889Z,13.30
2019-06-26T21:40:12.662Z,13.30
2019-06-26T21:42:42.426Z,13.50
2019-06-26T21:45:11.992Z,13.50
2019-06-26T21:47:41.536Z,13.60
2019-06-26T21:50:11.332Z,13.60
2019-06-26T21:52:40.819Z,13.70
2019-06-26T21:55:10.458Z,13.70
2019-06-26T21:57:57.853Z,13.70
2019-06-26T22:00:45.860Z,13.80
2019-06-26T22:03:33.708Z,13.70
2019-06-26T22:06:21.203Z,13.60
2019-06-26T22:09:01.412Z,13.40
2019-06-26T22:11:32.628Z,13.30
2019-06-26T22:14:02.278Z,13.20
2019-06-26T22:16:31.995Z,13.10
2019-06-26T22:19:01.678Z,13.10
2019-06-26T22:21:31.374Z,13.00
2019-06-26T22:24:00.957Z,12.90
2019-06-26T22:26:30.631Z,12.90
2019-06-26T22:29:00.147Z,12.80
2019-06-26T22:31:30.813Z,12.70
2019-06-26T22:34:00.351Z,12.70
2019-06-26T22:36:30.085Z,12.50
2019-06-26T22:38:59.623Z,12.50
2019-06-26T22:41:29.149Z,12.40
2019-06-26T22:43:58.746Z,12.40
2019-06-26T22:46:28.396Z,12.50
2019-06-26T22:48:57.977Z,12.50
2019-06-26T22:51:27.651Z,12.50
2019-06-26T22:53:57.180Z,12.60
2019-06-26T22:56:26.776Z,12.60
2019-06-26T22:58:56.398Z,12.60
2019-06-26T23:01:26.075Z,12.60
2019-06-26T23:03:55.667Z,12.60
2019-06-26T23:06:25.312Z,12.60
2019-06-26T23:08:54.976Z,12.50
2019-06-26T23:11:24.498Z,12.50
2019-06-26T23:13:54.101Z,12.40
2019-06-26T23:16:23.544Z,12.30
2019-06-26T23:18:53.177Z,12.30
2019-06-26T23:21:22.805Z,12.30
2019-06-26T23:23:52.405Z,12.30
2019-06-26T23:26:24.270Z,12.20
2019-06-26T23:28:53.299Z,12.20
2019-06-26T23:31:22.969Z,12.20
2019-06-26T23:33:52.497Z,12.20
2019-06-26T23:36:22.095Z,12.20
2019-06-26T23:38:51.539Z,12.20
2019-06-26T23:41:21.126Z,12.20
2019-06-26T23:43:50.799Z,12.20
2019-06-26T23:46:20.457Z,12.20
2019-06-26T23:48:50.043Z,12.20
2019-06-26T23:51:19.734Z,12.10
2019-06-26T23:53:49.248Z,12.20
2019-06-26T23:56:18.886Z,12.10
2019-06-26T23:58:48.482Z,12.10
